Time;durP1;ratioP1;P1;durP2;ratioP2;P2;SDS_P1;SDS_P2;PMS_P1;PMS_P2;Temp;Humidity;BMP_temperature;BMP_pressure;BME280_temperature;BME280_humidity;BME280_pressure;Samples;Min_cycle;Max_cycle;Signal;HPM_P1;HPM_P2
2022/10/07 00:01:45;;;;;;;8.93;3.93;;;9.60;1.00;;;;;;10364905;28;20239;-84
2022/10/07 00:07:08;;;;;;;9.03;3.53;;;9.70;1.00;;;;;;10365852;28;20223;-84
2022/10/07 00:12:29;;;;;;;6.73;3.40;;;9.70;1.00;;;;;;10365666;28;20235;-84
2022/10/07 00:17:50;;;;;;;12.47;3.27;;;9.80;1.00;;;;;;10351569;28;20205;-85
2022/10/07 00:23:12;;;;;;;11.03;3.90;;;9.90;1.00;;;;;;10365227;28;20274;-84
2022/10/07 00:28:34;;;;;;;9.50;4.00;;;9.70;1.00;;;;;;10358753;28;20274;-84
2022/10/07 00:33:56;;;;;;;14.73;4.73;;;9.60;1.00;;;;;;10368537;28;20304;-84
2022/10/07 00:39:18;;;;;;;11.73;4.77;;;9.60;1.00;;;;;;10368234;28;20489;-84
2022/10/07 00:44:42;;;;;;;9.00;3.87;;;9.60;1.00;;;;;;10367968;28;20439;-83
2022/10/07 00:50:09;;;;;;;11.10;4.33;;;9.60;1.00;;;;;;10374389;28;20246;-84
2022/10/07 00:55:31;;;;;;;9.67;4.27;;;9.50;1.00;;;;;;10394692;28;20239;-84
2022/10/07 01:00:53;;;;;;;12.90;3.77;;;9.50;1.00;;;;;;10392062;28;20438;-85
2022/10/07 01:06:15;;;;;;;9.77;4.50;;;9.50;1.00;;;;;;10364804;28;20208;-84
2022/10/07 01:11:58;;;;;;;9.27;4.03;;;9.50;1.00;;;;;;10414088;28;20512;-84
2022/10/07 01:17:28;;;;;;;13.03;4.50;;;9.50;1.00;;;;;;10399347;28;20199;-84
2022/10/07 01:23:18;;;;;;;9.57;3.83;;;9.40;1.00;;;;;;10398906;28;20197;-84
2022/10/07 01:28:52;;;;;;;6.70;3.47;;;9.40;1.00;;;;;;10385106;28;20420;-84
2022/10/07 01:34:16;;;;;;;8.47;3.70;;;9.30;1.00;;;;;;10385074;28;20247;-83
2022/10/07 01:39:45;;;;;;;8.27;3.23;;;9.20;1.00;;;;;;10389738;28;20258;-84
2022/10/07 01:45:10;;;;;;;10.07;3.40;;;9.10;1.00;;;;;;10389759;28;20204;-84
2022/10/07 01:50:32;;;;;;;10.53;4.00;;;9.10;1.00;;;;;;10370620;28;20196;-84
2022/10/07 01:56:00;;;;;;;8.63;3.27;;;9.10;1.00;;;;;;10386681;28;20237;-84
2022/10/07 02:01:32;;;;;;;7.07;3.33;;;9.00;1.00;;;;;;10387471;28;20195;-85
2022/10/07 02:07:20;;;;;;;9.33;3.27;;;9.10;1.00;;;;;;10386255;28;20284;-84
2022/10/07 02:12:50;;;;;;;6.33;2.60;;;9.10;1.00;;;;;;10372180;28;20256;-84
2022/10/07 02:18:17;;;;;;;8.13;3.17;;;9.00;1.00;;;;;;10407567;28;20194;-84
2022/10/07 02:23:41;;;;;;;11.07;4.17;;;8.70;1.00;;;;;;10398654;28;20207;-84
2022/10/07 02:29:06;;;;;;;13.40;4.83;;;8.70;1.00;;;;;;10427527;28;20384;-84
2022/10/07 02:34:30;;;;;;;11.27;4.43;;;8.60;1.00;;;;;;10385762;28;20233;-84
2022/10/07 02:39:53;;;;;;;9.60;3.80;;;8.70;1.00;;;;;;10385282;28;20502;-84
2022/10/07 02:45:39;;;;;;;9.67;3.40;;;8.60;1.00;;;;;;10384855;28;20226;-84
2022/10/07 02:51:05;;;;;;;6.87;3.30;;;8.60;1.00;;;;;;10384293;28;20194;-84
2022/10/07 02:56:31;;;;;;;10.33;3.20;;;8.50;1.00;;;;;;10400621;28;20221;-84
2022/10/07 03:01:57;;;;;;;6.17;3.00;;;8.40;1.00;;;;;;10386836;28;20500;-84
2022/10/07 03:07:19;;;;;;;9.53;2.83;;;8.40;1.00;;;;;;10398064;28;20205;-84
2022/10/07 03:12:42;;;;;;;9.50;2.80;;;8.40;1.00;;;;;;10397383;28;20524;-84
2022/10/07 03:18:05;;;;;;;8.90;3.37;;;8.50;1.00;;;;;;10386064;28;20281;-84
2022/10/07 03:23:28;;;;;;;10.33;3.30;;;8.40;1.00;;;;;;10366733;28;20236;-84
2022/10/07 03:28:50;;;;;;;7.13;3.23;;;;;;;;;;10369601;28;20227;-84
2022/10/07 03:34:13;;;;;;;9.50;3.03;;;;;;;;;;10353221;28;20280;-85
2022/10/07 03:39:37;;;;;;;11.07;4.53;;;;;;;;;;10380094;28;20203;-84
2022/10/07 03:44:59;;;;;;;7.80;3.20;;;;;;;;;;10379939;28;20203;-84
2022/10/07 03:50:22;;;;;;;11.53;4.10;;;8.30;1.00;;;;;;10378646;28;20454;-84
2022/10/07 03:55:44;;;;;;;10.37;3.60;;;8.30;1.00;;;;;;10379129;28;20245;-84
2022/10/07 04:01:16;;;;;;;10.67;4.13;;;8.30;1.00;;;;;;10352304;28;20194;-84
2022/10/07 04:06:44;;;;;;;11.30;4.03;;;;;;;;;;10378596;28;20402;-84
2022/10/07 04:12:07;;;;;;;9.50;3.77;;;8.10;1.00;;;;;;10371905;28;20201;-84
2022/10/07 04:17:29;;;;;;;8.33;4.10;;;8.10;1.00;;;;;;10398200;28;20226;-85
2022/10/07 04:22:51;;;;;;;8.90;5.20;;;8.00;1.00;;;;;;10395690;28;20198;-85
2022/10/07 04:28:18;;;;;;;8.37;5.37;;;7.90;1.00;;;;;;10379397;28;20507;-84
2022/10/07 04:33:45;;;;;;;10.00;5.20;;;7.90;1.00;;;;;;10364902;28;20256;-84
2022/10/07 04:39:12;;;;;;;10.93;5.40;;;7.80;1.00;;;;;;10365199;28;20497;-84
2022/10/07 04:44:48;;;;;;;15.90;6.90;;;7.80;1.00;;;;;;10381547;28;20209;-84
2022/10/07 04:50:10;;;;;;;10.30;5.57;;;7.70;1.00;;;;;;10372308;28;20521;-84
2022/10/07 04:55:41;;;;;;;10.73;4.90;;;7.70;1.00;;;;;;10402381;28;20607;-85
2022/10/07 05:01:07;;;;;;;9.60;3.93;;;7.70;1.00;;;;;;10391530;28;20218;-84
2022/10/07 05:06:34;;;;;;;9.37;3.80;;;7.60;1.00;;;;;;10399682;28;20216;-83
2022/10/07 05:11:56;;;;;;;17.00;8.73;;;;;;;;;;10402733;28;20204;-85
2022/10/07 05:17:18;;;;;;;10.07;5.77;;;7.60;1.00;;;;;;10374143;28;20227;-84
2022/10/07 05:22:39;;;;;;;19.57;11.27;;;7.60;9.30;;;;;;10371638;28;20209;-84
2022/10/07 05:28:00;;;;;;;16.50;10.23;;;7.60;1.00;;;;;;10374179;28;20489;-85
2022/10/07 05:33:22;;;;;;;12.33;6.80;;;7.60;1.00;;;;;;10357580;28;20225;-84
2022/10/07 05:38:43;;;;;;;11.23;5.20;;;7.60;1.00;;;;;;10357595;28;20198;-84
2022/10/07 05:44:05;;;;;;;9.30;5.70;;;7.70;23.90;;;;;;10384462;28;20411;-83
2022/10/07 05:49:27;;;;;;;12.67;4.67;;;7.70;3.80;;;;;;10383789;28;20480;-84
2022/10/07 05:54:49;;;;;;;8.57;5.03;;;7.90;11.50;;;;;;10369489;28;20298;-85
2022/10/07 06:00:11;;;;;;;14.00;6.27;;;7.90;9.60;;;;;;10370284;28;20204;-84
2022/10/07 06:05:40;;;;;;;16.53;5.83;;;8.10;7.50;;;;;;10358686;28;20281;-84
2022/10/07 06:16:44;;;;;;;7.13;4.20;;;8.50;1.00;;;;;;10364607;28;20226;-84
2022/10/07 06:22:06;;;;;;;10.13;4.67;;;8.70;1.00;;;;;;10334493;28;20577;-84
2022/10/07 06:27:30;;;;;;;8.93;4.60;;;9.00;1.00;;;;;;10356583;28;20200;-84
2022/10/07 06:32:52;;;;;;;16.20;4.30;;;9.50;1.00;;;;;;10368591;28;20401;-84
2022/10/07 06:38:15;;;;;;;9.17;4.50;;;;;;;;;;10382204;28;20207;-85
2022/10/07 06:43:37;;;;;;;8.07;4.07;;;12.10;1.00;;;;;;10382108;28;20199;-84
2022/10/07 06:49:00;;;;;;;7.22;3.22;;;13.40;1.00;;;;;;10367594;28;20220;-85
2022/10/07 06:54:23;;;;;;;7.82;4.25;;;14.50;1.00;;;;;;10384032;28;20313;-85
2022/10/07 06:59:45;;;;;;;16.05;5.22;;;15.60;99.90;;;;;;10367508;28;20263;-85
2022/10/07 07:05:13;;;;;;;11.32;4.85;;;16.70;99.90;;;;;;10367472;28;20227;-86
2022/10/07 07:10:40;;;;;;;15.05;6.55;;;17.30;99.90;;;;;;10367437;28;20212;-85
2022/10/07 07:16:05;;;;;;;14.27;7.57;;;17.80;1.00;;;;;;10323116;28;20561;-85
2022/10/07 07:21:32;;;;;;;16.48;7.25;;;;;;;;;;10351853;28;20289;-81
2022/10/07 07:26:54;;;;;;;16.00;6.53;;;18.90;1.00;;;;;;10359031;28;20202;-84
2022/10/07 07:32:18;;;;;;;10.90;5.55;;;18.80;1.00;;;;;;10377810;28;20216;-85
2022/10/07 07:37:40;;;;;;;10.20;3.95;;;19.50;1.00;;;;;;10377031;28;20200;-89
2022/10/07 07:43:03;;;;;;;7.65;4.10;;;;;;;;;;10382018;28;20197;-87
2022/10/07 07:48:26;;;;;;;6.50;3.38;;;20.30;1.00;;;;;;10376701;28;20200;-82
2022/10/07 07:53:51;;;;;;;9.50;4.45;;;20.70;1.00;;;;;;10404784;28;20241;-87
2022/10/07 07:59:12;;;;;;;11.60;4.80;;;21.00;1.00;;;;;;10390085;28;20201;-84
2022/10/07 08:04:34;;;;;;;10.35;3.33;;;21.70;99.90;;;;;;10363833;28;20204;-84
2022/10/07 08:09:57;;;;;;;8.73;4.03;;;22.20;99.90;;;;;;10374521;28;20203;-85
2022/10/07 08:15:18;;;;;;;11.52;3.35;;;23.10;99.90;;;;;;10342066;28;20251;-84
2022/10/07 08:20:40;;;;;;;8.05;3.88;;;23.40;99.90;;;;;;10371041;28;20233;-88
2022/10/07 08:26:03;;;;;;;6.07;3.60;;;23.50;99.90;;;;;;10371155;28;20193;-91
2022/10/07 08:31:26;;;;;;;6.78;3.92;;;23.40;99.90;;;;;;10375107;28;20220;-87
2022/10/07 08:36:49;;;;;;;7.22;3.53;;;24.20;99.90;;;;;;10367169;28;20237;-83
2022/10/07 08:42:18;;;;;;;6.43;3.00;;;24.20;99.90;;;;;;10374935;28;20204;-88
2022/10/07 08:47:45;;;;;;;6.13;2.40;;;24.10;97.30;;;;;;10390898;28;20204;-82
2022/10/07 08:53:15;;;;;;;12.93;3.03;;;24.10;70.80;;;;;;10389892;28;20303;-83
2022/10/07 08:59:08;;;;;;;8.93;3.05;;;24.40;52.80;;;;;;10359472;28;20209;-88
2022/10/07 09:04:40;;;;;;;6.78;2.35;;;21.90;33.90;;;;;;10370965;28;20466;-85
2022/10/07 09:10:24;;;;;;;7.47;2.85;;;21.50;45.20;;;;;;10387294;28;20214;-83
2022/10/07 09:15:55;;;;;;;7.75;2.58;;;20.30;92.10;;;;;;10327765;28;20267;-84
2022/10/07 09:21:31;;;;;;;10.60;3.42;;;20.70;98.40;;;;;;10338196;28;20189;-88
2022/10/07 09:26:58;;;;;;;8.80;3.15;;;22.10;93.70;;;;;;10357286;28;20255;-88
2022/10/07 09:32:20;;;;;;;7.18;3.80;;;23.10;69.60;;;;;;10328080;28;20201;-84
2022/10/07 09:37:56;;;;;;;12.65;3.17;;;23.50;44.60;;;;;;10387364;28;20539;-88
2022/10/07 09:43:18;;;;;;;6.18;2.45;;;23.80;16.10;;;;;;10365386;28;20205;-85
2022/10/07 09:48:52;;;;;;;8.50;2.55;;;24.30;2.20;;;;;;10394219;28;20559;-86
2022/10/07 09:54:19;;;;;;;7.68;2.83;;;24.20;1.00;;;;;;10364826;28;20242;-85
2022/10/07 09:59:40;;;;;;;6.50;1.85;;;24.60;1.00;;;;;;10323336;28;20206;-87
2022/10/07 10:05:04;;;;;;;4.55;1.77;;;24.40;1.00;;;;;;10340592;28;20202;-83
2022/10/07 10:10:29;;;;;;;5.40;2.25;;;24.60;1.00;;;;;;10342343;28;20200;-86
2022/10/07 10:15:50;;;;;;;5.32;2.00;;;24.70;1.00;;;;;;10324517;28;20241;-86
2022/10/07 10:21:18;;;;;;;9.25;2.15;;;24.50;1.00;;;;;;10320928;28;20278;-84
2022/10/07 10:26:58;;;;;;;4.13;1.73;;;24.50;1.00;;;;;;10360968;28;20229;-83
2022/10/07 10:32:38;;;;;;;4.85;1.63;;;24.40;1.00;;;;;;10323781;28;20214;-79
2022/10/07 10:38:09;;;;;;;10.85;2.50;;;25.00;1.00;;;;;;10336386;28;20232;-86
2022/10/07 10:43:57;;;;;;;4.30;2.20;;;24.90;1.00;;;;;;10335802;28;20221;-84
2022/10/07 10:49:29;;;;;;;7.18;2.10;;;25.20;1.00;;;;;;10328171;28;20252;-84
2022/10/07 10:55:11;;;;;;;7.45;1.83;;;25.90;1.00;;;;;;10354350;28;20257;-84
2022/10/07 11:01:07;;;;;;;7.60;1.70;;;25.90;1.00;;;;;;10348819;28;20213;-83
2022/10/07 11:06:31;;;;;;;7.70;2.40;;;25.50;1.00;;;;;;10361992;28;20220;-84
2022/10/07 11:11:53;;;;;;;4.43;1.60;;;26.10;1.00;;;;;;10363765;28;20251;-85
2022/10/07 11:17:20;;;;;;;6.10;1.92;;;26.30;1.00;;;;;;10393414;28;20275;-83
2022/10/07 11:22:50;;;;;;;5.22;2.08;;;26.10;1.00;;;;;;10391584;28;20190;-83
2022/10/07 11:28:22;;;;;;;4.63;1.67;;;26.10;1.00;;;;;;10366293;28;20201;-84
2022/10/07 11:34:10;;;;;;;9.23;1.95;;;26.70;1.00;;;;;;10344991;28;20221;-84
2022/10/07 11:39:36;;;;;;;9.30;2.15;;;26.80;1.00;;;;;;10360485;28;20219;-83
2022/10/07 11:45:07;;;;;;;5.60;2.47;;;26.50;1.00;;;;;;10347669;28;20376;-87
2022/10/07 11:50:55;;;;;;;4.75;1.70;;;26.40;1.00;;;;;;10360532;28;20522;-81
2022/10/07 11:56:30;;;;;;;8.00;2.17;;;27.10;1.00;;;;;;10374457;28;20313;-86
2022/10/07 12:01:52;;;;;;;7.35;1.92;;;26.90;1.00;;;;;;10376766;28;20216;-84
2022/10/07 12:07:33;;;;;;;4.05;1.65;;;27.20;1.00;;;;;;10375916;28;20419;-82
2022/10/07 12:12:58;;;;;;;5.43;1.75;;;26.80;1.00;;;;;;10362697;28;20212;-86
2022/10/07 12:18:26;;;;;;;12.55;1.92;;;27.10;1.00;;;;;;10379732;28;20201;-85
2022/10/07 12:24:13;;;;;;;2.28;1.33;;;27.20;1.00;;;;;;10404712;28;20264;-84
2022/10/07 12:29:58;;;;;;;5.55;1.50;;;26.90;1.00;;;;;;10377735;28;20194;-87
2022/10/07 12:35:31;;;;;;;5.72;3.53;;;26.80;1.00;;;;;;10380845;28;20232;-87
2022/10/07 12:41:35;;;;;;;7.47;2.17;;;26.70;1.00;;;;;;10390605;28;20243;-83
2022/10/07 12:47:11;;;;;;;3.40;1.75;;;26.70;1.00;;;;;;10387700;28;20212;-85
2022/10/07 12:52:41;;;;;;;7.63;2.03;;;26.50;1.00;;;;;;10400507;28;20229;-84
2022/10/07 13:04:26;;;;;;;8.82;2.15;;;25.60;1.00;;;;;;10389700;28;20189;-88
2022/10/07 13:10:08;;;;;;;11.38;2.90;;;25.60;1.00;;;;;;10388991;28;20200;-85
2022/10/07 13:15:40;;;;;;;4.45;2.00;;;25.20;1.00;;;;;;10385191;28;20279;-85
2022/10/07 13:21:36;;;;;;;5.60;1.90;;;24.80;1.00;;;;;;10366125;28;20236;-86
2022/10/07 13:26:58;;;;;;;6.18;2.25;;;24.30;1.00;;;;;;10382592;28;20232;-82
2022/10/07 13:32:29;;;;;;;5.55;2.03;;;24.90;1.00;;;;;;10379778;28;20197;-83
2022/10/07 13:37:51;;;;;;;7.13;1.98;;;24.90;1.00;;;;;;10384220;28;20425;-85
2022/10/07 13:43:14;;;;;;;7.25;2.05;;;23.90;1.00;;;;;;10376369;28;20358;-81
2022/10/07 13:48:40;;;;;;;11.38;2.33;;;23.70;1.00;;;;;;10392597;28;20465;-83
2022/10/07 13:54:14;;;;;;;8.88;2.60;;;23.70;1.00;;;;;;10390669;28;20487;-82
2022/10/07 13:59:36;;;;;;;9.52;3.70;;;23.70;1.00;;;;;;10366683;28;20205;-86
2022/10/07 14:05:03;;;;;;;7.32;3.83;;;23.20;1.00;;;;;;10395051;28;20224;-83
2022/10/07 14:10:28;;;;;;;10.20;2.70;;;21.20;99.90;;;;;;10380472;28;20209;-85
2022/10/07 14:15:51;;;;;;;8.13;2.90;;;20.70;1.00;;;;;;10406892;28;20299;-86
2022/10/07 14:21:15;;;;;;;5.82;2.75;;;20.00;99.90;;;;;;10341950;28;20378;-85
2022/10/07 14:26:42;;;;;;;6.03;2.50;;;19.10;1.00;;;;;;10372063;28;20204;-83
2022/10/07 14:38:19;;;;;;;5.35;2.38;;;18.30;1.00;;;;;;10364495;28;20305;-84
2022/10/07 14:43:43;;;;;;;6.40;2.88;;;18.20;1.00;;;;;;10349787;28;20326;-83
2022/10/07 14:49:05;;;;;;;7.57;3.17;;;;;;;;;;10379455;28;20419;-80
2022/10/07 14:54:27;;;;;;;5.38;2.67;;;17.80;1.00;;;;;;10362443;28;20275;-84
2022/10/07 14:59:49;;;;;;;8.38;3.03;;;17.60;1.00;;;;;;10349916;28;20207;-84
2022/10/07 15:05:11;;;;;;;9.70;3.25;;;17.40;1.00;;;;;;10376395;28;20274;-90
2022/10/07 15:10:33;;;;;;;9.70;5.70;;;17.30;1.00;;;;;;10375921;28;20457;-83
2022/10/07 15:15:56;;;;;;;11.13;3.85;;;17.30;1.00;;;;;;10362702;28;20234;-83
2022/10/07 15:21:17;;;;;;;7.45;3.97;;;17.10;1.00;;;;;;10391640;28;20242;-81
2022/10/07 15:26:38;;;;;;;10.93;4.90;;;16.90;1.00;;;;;;10358570;28;20483;-83
2022/10/07 15:32:00;;;;;;;12.30;5.50;;;16.70;1.00;;;;;;10335844;28;20205;-82
2022/10/07 15:37:21;;;;;;;7.03;4.20;;;16.60;1.00;;;;;;10355632;28;20225;-83
2022/10/07 15:42:43;;;;;;;10.40;4.32;;;16.40;1.00;;;;;;10348724;28;20199;-82
2022/10/07 15:48:06;;;;;;;10.48;4.43;;;16.20;1.00;;;;;;10365471;28;20544;-83
2022/10/07 15:53:27;;;;;;;5.88;3.92;;;16.10;14.10;;;;;;10381381;28;20413;-83
2022/10/07 15:58:48;;;;;;;10.10;5.53;;;15.90;56.90;;;;;;10381779;28;20218;-83
2022/10/07 16:04:12;;;;;;;13.13;7.20;;;;;;;;;;10350954;28;20227;-83
2022/10/07 16:09:33;;;;;;;13.00;7.35;;;15.70;1.00;;;;;;10363819;28;20225;-83
2022/10/07 16:14:55;;;;;;;19.83;11.20;;;15.60;99.90;;;;;;10361341;28;20277;-83
2022/10/07 16:20:17;;;;;;;115.05;73.13;;;15.40;99.90;;;;;;10349254;28;20381;-83
2022/10/07 16:25:38;;;;;;;92.85;59.28;;;14.90;99.90;;;;;;10351427;28;20199;-83
2022/10/07 16:31:00;;;;;;;57.78;32.97;;;;;;;;;;10377687;28;20195;-83
2022/10/07 16:36:23;;;;;;;35.28;18.40;;;14.60;1.00;;;;;;10380751;28;20527;-83
2022/10/07 16:41:45;;;;;;;19.00;12.65;;;14.60;99.90;;;;;;10359004;28;20216;-83
2022/10/07 16:47:07;;;;;;;26.77;15.85;;;;;;;;;;10353308;28;20197;-83
2022/10/07 16:52:28;;;;;;;44.72;26.67;;;;;;;;;;10374778;28;20239;-82
2022/10/07 16:57:52;;;;;;;59.78;33.53;;;;;;;;;;10358140;28;20534;-83
2022/10/07 17:03:13;;;;;;;64.60;41.70;;;13.90;1.00;;;;;;10387252;28;20201;-83
2022/10/07 17:08:35;;;;;;;72.57;47.53;;;;;;;;;;10414560;28;20271;-82
2022/10/07 17:14:15;;;;;;;76.17;42.97;;;13.50;99.90;;;;;;10390715;28;20204;-82
2022/10/07 17:19:37;;;;;;;70.25;42.65;;;13.40;49.30;;;;;;10386880;28;20394;-82
2022/10/07 17:24:58;;;;;;;73.45;43.22;;;13.10;99.90;;;;;;10394497;28;20185;-83
2022/10/07 17:30:20;;;;;;;88.68;47.75;;;13.00;1.00;;;;;;10404300;28;20192;-83
2022/10/07 17:35:41;;;;;;;87.93;50.05;;;12.90;99.90;;;;;;10384280;28;20315;-83
2022/10/07 17:41:16;;;;;;;89.75;53.13;;;12.80;1.00;;;;;;10390864;28;20201;-82
2022/10/07 17:46:39;;;;;;;103.82;65.05;;;12.60;1.00;;;;;;10400336;28;20192;-81
2022/10/07 17:52:01;;;;;;;99.03;66.27;;;12.60;99.90;;;;;;10359058;28;20235;-82
2022/10/07 17:57:23;;;;;;;105.57;69.23;;;12.40;99.90;;;;;;10351139;28;20225;-83
2022/10/07 18:02:49;;;;;;;106.40;66.53;;;12.30;1.00;;;;;;10385941;28;20199;-82
2022/10/07 18:08:10;;;;;;;97.27;61.63;;;12.20;1.00;;;;;;10385119;28;20382;-82
2022/10/07 18:19:14;;;;;;;88.80;56.17;;;12.00;1.00;;;;;;10361510;28;20226;-84
2022/10/07 18:24:36;;;;;;;76.63;46.67;;;12.00;99.90;;;;;;10368741;28;20479;-82
2022/10/07 18:29:59;;;;;;;62.33;35.67;;;;;;;;;;10368350;28;20203;-83
2022/10/07 18:35:20;;;;;;;61.60;33.67;;;11.80;99.90;;;;;;10354739;28;20230;-83
2022/10/07 18:40:42;;;;;;;56.83;34.30;;;11.60;99.90;;;;;;10360028;28;20394;-83
2022/10/07 18:46:10;;;;;;;72.40;39.07;;;11.50;99.90;;;;;;10346739;28;20495;-83
2022/10/07 18:51:31;;;;;;;86.23;41.43;;;;;;;;;;10367223;28;20251;-83
2022/10/07 18:56:53;;;;;;;109.70;53.33;;;;;;;;;;10380973;28;20305;-83
2022/10/07 19:02:14;;;;;;;93.30;50.40;;;;;;;;;;10353162;28;20198;-83
2022/10/07 19:07:36;;;;;;;90.20;48.10;;;;;;;;;;10385348;28;20201;-83
2022/10/07 19:18:42;;;;;;;103.23;51.17;;;;;;;;;;10375557;28;20235;-83
2022/10/07 19:24:04;;;;;;;182.27;65.70;;;;;;;;;;10366703;28;20427;-83
2022/10/07 19:29:26;;;;;;;208.80;76.60;;;;;;;;;;10393319;28;20198;-84
2022/10/07 19:34:47;;;;;;;236.53;85.27;;;;;;;;;;10365919;28;20245;-83
2022/10/07 19:40:10;;;;;;;210.13;74.10;;;10.80;99.90;;;;;;10342284;28;20230;-83
2022/10/07 19:45:34;;;;;;;168.70;67.40;;;;;;;;;;10346490;28;20201;-83
2022/10/07 19:50:59;;;;;;;172.17;66.03;;;;;;;;;;10365443;28;20229;-83
2022/10/07 19:56:22;;;;;;;158.73;63.97;;;;;;;;;;10365181;28;20230;-82
2022/10/07 20:01:46;;;;;;;168.57;62.97;;;;;;;;;;10378540;28;20393;-83
2022/10/07 20:07:08;;;;;;;161.40;66.10;;;;;;;;;;10397317;28;20209;-83
2022/10/07 20:12:30;;;;;;;160.97;72.13;;;;;;;;;;10350857;28;20206;-82
2022/10/07 20:17:54;;;;;;;163.47;76.17;;;;;;;;;;10362029;28;20242;-83
2022/10/07 20:23:16;;;;;;;142.47;66.37;;;;;;;;;;10351084;28;20885;-82
2022/10/07 20:28:39;;;;;;;147.43;70.73;;;;;;;;;;10364708;28;20445;-82
2022/10/07 20:34:01;;;;;;;141.27;69.57;;;9.80;51.00;;;;;;10381466;28;20262;-82
2022/10/07 20:45:08;;;;;;;140.30;69.50;;;;;;;;;;10378080;28;20496;-83
2022/10/07 20:50:33;;;;;;;140.97;67.10;;;;;;;;;;10363433;28;20209;-83
2022/10/07 20:55:58;;;;;;;144.87;69.03;;;;;;;;;;10380425;28;20236;-83
2022/10/07 21:01:21;;;;;;;136.17;67.00;;;;;;;;;;10329942;28;20201;-83
2022/10/07 21:06:45;;;;;;;144.33;68.53;;;;;;;;;;10379345;28;20199;-82
2022/10/07 21:12:12;;;;;;;142.83;68.13;;;;;;;;;;10390743;28;20190;-83
2022/10/07 21:17:35;;;;;;;144.27;67.57;;;;;;;;;;10364031;28;20226;-82
2022/10/07 21:22:58;;;;;;;135.10;66.63;;;;;;;;;;10394425;28;20271;-83
2022/10/07 21:28:23;;;;;;;150.13;68.50;;;;;;;;;;10384945;28;20192;-82
2022/10/07 21:33:47;;;;;;;142.73;65.47;;;9.20;27.90;;;;;;10398420;28;20193;-83
2022/10/07 21:39:12;;;;;;;143.93;67.93;;;9.20;99.90;;;;;;10388364;28;20537;-82
2022/10/07 21:44:36;;;;;;;143.70;70.33;;;9.10;1.00;;;;;;10356451;28;20203;-82
2022/10/07 21:49:59;;;;;;;144.10;68.33;;;;;;;;;;10373245;28;20213;-83
2022/10/07 21:55:23;;;;;;;130.50;65.90;;;;;;;;;;10389162;28;20430;-83
2022/10/07 22:00:47;;;;;;;123.57;62.23;;;;;;;;;;10370245;28;20276;-83
2022/10/07 22:06:14;;;;;;;121.33;60.87;;;;;;;;;;10403000;28;20222;-83
2022/10/07 22:11:38;;;;;;;118.70;60.73;;;8.80;99.90;;;;;;10369754;28;20219;-83
2022/10/07 22:17:03;;;;;;;120.47;60.63;;;;;;;;;;10367509;28;20244;-82
2022/10/07 22:22:27;;;;;;;123.73;59.00;;;;;;;;;;10368878;28;20206;-82
2022/10/07 22:27:53;;;;;;;113.73;57.57;;;;;;;;;;10355079;28;20230;-83
2022/10/07 22:33:16;;;;;;;107.83;54.50;;;;;;;;;;10384406;28;20268;-82
2022/10/07 22:38:40;;;;;;;91.67;51.27;;;8.60;99.90;;;;;;10386719;28;20410;-82
2022/10/07 22:44:01;;;;;;;85.57;47.73;;;8.70;99.90;;;;;;10359990;28;20199;-82
2022/10/07 22:49:24;;;;;;;88.90;45.27;;;8.60;99.90;;;;;;10330225;28;20396;-82
2022/10/07 22:54:48;;;;;;;86.77;45.67;;;8.70;99.90;;;;;;10370542;28;20304;-83
2022/10/07 23:00:10;;;;;;;77.93;41.93;;;8.60;99.90;;;;;;10380963;28;20220;-82
2022/10/07 23:05:36;;;;;;;75.80;41.30;;;;;;;;;;10400543;28;20276;-83
2022/10/07 23:10:58;;;;;;;68.97;39.83;;;;;;;;;;10380442;28;20241;-82
2022/10/07 23:16:22;;;;;;;73.90;41.40;;;8.50;99.90;;;;;;10356930;28;20232;-82
2022/10/07 23:21:46;;;;;;;73.73;42.43;;;8.50;97.50;;;;;;10353078;28;20432;-82
2022/10/07 23:27:10;;;;;;;72.80;41.13;;;8.40;99.90;;;;;;10382690;28;20525;-82
2022/10/07 23:32:32;;;;;;;75.37;39.87;;;;;;;;;;10325616;28;20202;-82
2022/10/07 23:37:56;;;;;;;73.20;40.93;;;;;;;;;;10343196;28;20230;-82
2022/10/07 23:43:17;;;;;;;72.07;37.90;;;;;;;;;;10379224;28;20541;-82
2022/10/07 23:48:40;;;;;;;67.73;36.90;;;;;;;;;;10367581;28;20228;-82
2022/10/07 23:54:02;;;;;;;66.23;35.47;;;;;;;;;;10377969;28;20240;-82
2022/10/07 23:59:26;;;;;;;69.47;40.37;;;8.10;1.00;;;;;;10365180;28;20222;-82
